createdAt,value
2022-08-03T00:00:42.186Z,22.40
2022-08-03T00:01:42.193Z,22.45
2022-08-03T00:02:42.202Z,22.46
2022-08-03T00:03:42.194Z,22.45
2022-08-03T00:04:42.198Z,22.43
2022-08-03T00:06:03.847Z,22.36
2022-08-03T00:06:42.207Z,22.39
2022-08-03T00:07:42.204Z,22.39
2022-08-03T00:08:42.209Z,22.39
2022-08-03T00:09:42.208Z,22.45
2022-08-03T00:10:42.212Z,22.43
2022-08-03T00:11:42.215Z,22.45
2022-08-03T00:12:42.218Z,22.39
2022-08-03T00:13:42.219Z,22.36
2022-08-03T00:14:42.223Z,22.43
2022-08-03T00:15:42.224Z,22.46
2022-08-03T00:16:42.229Z,22.40
2022-08-03T00:17:53.350Z,22.47
2022-08-03T00:18:42.234Z,22.55
2022-08-03T00:19:42.237Z,22.49
2022-08-03T00:20:42.237Z,22.58
2022-08-03T00:21:42.242Z,22.55
2022-08-03T00:22:42.242Z,22.49
2022-08-03T00:23:52.096Z,22.55
2022-08-03T00:24:42.251Z,22.51
2022-08-03T00:25:42.250Z,22.57
2022-08-03T00:26:42.253Z,22.47
2022-08-03T00:27:42.259Z,22.57
2022-08-03T00:28:42.256Z,22.54
2022-08-03T00:30:00.043Z,22.61
2022-08-03T00:30:42.264Z,22.55
2022-08-03T00:31:51.679Z,22.60
2022-08-03T00:32:44.414Z,22.58
2022-08-03T00:33:59.118Z,22.61
2022-08-03T00:34:57.630Z,22.61
2022-08-03T00:35:50.710Z,22.60
2022-08-03T00:36:42.280Z,22.64
2022-08-03T00:37:42.285Z,22.61
2022-08-03T00:38:42.287Z,22.58
2022-08-03T00:39:42.289Z,22.54
2022-08-03T00:40:42.290Z,22.65
2022-08-03T00:41:42.294Z,22.65
2022-08-03T00:42:42.296Z,22.55
2022-08-03T00:43:42.298Z,22.62
2022-08-03T00:44:42.301Z,22.57
2022-08-03T00:45:42.301Z,22.55
2022-08-03T00:46:42.306Z,22.62
2022-08-03T00:47:42.305Z,22.57
2022-08-03T00:48:42.312Z,22.55
2022-08-03T00:49:42.446Z,22.54
2022-08-03T00:50:42.315Z,22.52
2022-08-03T00:51:42.320Z,22.52
2022-08-03T00:52:42.318Z,22.52
2022-08-03T00:53:42.323Z,22.55
2022-08-03T00:54:42.325Z,22.47
2022-08-03T00:55:42.329Z,22.52
2022-08-03T00:57:00.316Z,22.42
2022-08-03T00:57:42.329Z,22.40
2022-08-03T00:58:42.335Z,22.37
2022-08-03T00:59:42.336Z,22.45
2022-08-03T01:00:42.344Z,22.33
2022-08-03T01:01:42.467Z,22.36
2022-08-03T01:02:42.345Z,22.40
2022-08-03T01:03:42.351Z,22.36
2022-08-03T01:04:42.353Z,22.55
2022-08-03T01:05:42.353Z,22.42
2022-08-03T01:06:42.355Z,22.40
2022-08-03T01:07:42.356Z,22.54
2022-08-03T01:08:42.363Z,22.54
2022-08-03T01:09:42.364Z,22.57
2022-08-03T01:10:42.363Z,22.58
2022-08-03T01:12:01.245Z,22.55
2022-08-03T01:12:42.370Z,22.61
2022-08-03T01:14:01.462Z,22.57
2022-08-03T01:14:42.375Z,22.57
2022-08-03T01:15:42.377Z,22.67
2022-08-03T01:16:42.429Z,22.60
2022-08-03T01:17:42.384Z,22.70
2022-08-03T01:18:42.389Z,22.73
2022-08-03T01:19:42.387Z,22.72
2022-08-03T01:20:42.393Z,22.65
2022-08-03T01:21:42.391Z,22.64
2022-08-03T01:22:42.397Z,22.68
2022-08-03T01:23:42.396Z,22.76
2022-08-03T01:24:42.399Z,22.72
2022-08-03T01:25:42.403Z,22.76
2022-08-03T01:26:42.406Z,22.79
2022-08-03T01:27:42.407Z,22.75
2022-08-03T01:28:42.409Z,22.80
2022-08-03T01:29:42.408Z,22.79
2022-08-03T01:30:42.413Z,22.76
2022-08-03T01:32:52.391Z,22.83
2022-08-03T01:33:02.452Z,22.79
2022-08-03T01:33:42.422Z,22.82
2022-08-03T01:34:42.426Z,22.82
2022-08-03T01:35:42.429Z,22.80
2022-08-03T01:36:42.433Z,22.83
2022-08-03T01:37:42.430Z,22.79
2022-08-03T01:38:42.432Z,22.86
2022-08-03T01:39:42.439Z,22.82
2022-08-03T01:40:42.446Z,22.82
2022-08-03T01:41:42.452Z,22.82
2022-08-03T01:42:42.445Z,22.91
2022-08-03T01:44:28.643Z,22.83
2022-08-03T01:44:42.454Z,22.92
2022-08-03T01:45:42.453Z,22.86
2022-08-03T01:46:47.686Z,22.91
2022-08-03T01:47:42.456Z,22.90
2022-08-03T01:48:42.460Z,22.91
2022-08-03T01:49:42.536Z,22.91
2022-08-03T01:50:42.469Z,22.94
2022-08-03T01:52:00.854Z,22.90
2022-08-03T01:52:42.471Z,22.91
2022-08-03T01:53:42.469Z,22.94
2022-08-03T01:54:42.473Z,22.90
2022-08-03T01:55:42.477Z,22.91
2022-08-03T01:56:42.480Z,22.92
2022-08-03T01:58:05.741Z,22.90
2022-08-03T01:58:42.491Z,22.91
2022-08-03T01:59:42.487Z,22.98
2022-08-03T02:00:42.533Z,22.94
2022-08-03T02:02:16.076Z,22.94
2022-08-03T02:02:43.131Z,22.95
2022-08-03T02:03:59.575Z,23.01
2022-08-03T02:04:42.501Z,23.00
2022-08-03T02:05:42.502Z,22.95
2022-08-03T02:07:01.077Z,22.94
2022-08-03T02:07:42.506Z,23.02
2022-08-03T02:08:42.511Z,23.05
2022-08-03T02:09:42.509Z,23.02
2022-08-03T02:10:42.512Z,23.01
2022-08-03T02:11:42.514Z,22.95
2022-08-03T02:12:43.441Z,23.01
2022-08-03T02:13:42.522Z,23.00
2022-08-03T02:14:42.526Z,22.91
2022-08-03T02:15:42.522Z,22.98
2022-08-03T02:16:42.577Z,22.97
2022-08-03T02:17:42.530Z,22.94
2022-08-03T02:18:42.540Z,22.95
2022-08-03T02:19:42.536Z,22.94
2022-08-03T02:20:42.538Z,22.92
2022-08-03T02:21:56.621Z,22.92
2022-08-03T02:22:42.551Z,22.91
2022-08-03T02:23:42.554Z,22.86
2022-08-03T02:24:42.553Z,22.90
2022-08-03T02:25:42.551Z,22.94
2022-08-03T02:26:42.554Z,22.92
2022-08-03T02:27:43.791Z,22.94
2022-08-03T02:28:42.562Z,22.90
2022-08-03T02:29:42.565Z,22.86
2022-08-03T02:30:42.563Z,22.94
2022-08-03T02:31:42.567Z,22.94
2022-08-03T02:32:42.569Z,22.86
2022-08-03T02:33:42.571Z,22.94
2022-08-03T02:34:42.575Z,22.92
2022-08-03T02:35:42.573Z,22.86
2022-08-03T02:36:42.580Z,22.91
2022-08-03T02:37:42.940Z,22.85
2022-08-03T02:38:42.583Z,22.88
2022-08-03T02:39:42.581Z,22.95
2022-08-03T02:40:42.586Z,22.94
2022-08-03T02:41:42.592Z,22.94
2022-08-03T02:42:42.590Z,22.92
2022-08-03T02:44:05.690Z,22.97
2022-08-03T02:44:42.599Z,22.91
2022-08-03T02:45:45.498Z,22.91
2022-08-03T02:46:42.604Z,22.92
2022-08-03T02:47:53.612Z,22.92
2022-08-03T02:48:42.606Z,22.95
2022-08-03T02:49:51.414Z,22.94
2022-08-03T02:50:42.619Z,22.92
2022-08-03T02:51:42.616Z,23.01
2022-08-03T02:52:42.616Z,22.92
2022-08-03T02:53:42.623Z,23.00
2022-08-03T02:54:42.620Z,22.95
2022-08-03T02:55:45.661Z,23.00
2022-08-03T02:56:42.629Z,23.01
2022-08-03T02:57:42.631Z,23.02
2022-08-03T02:58:42.632Z,23.00
2022-08-03T02:59:42.636Z,23.00
2022-08-03T03:00:42.679Z,23.09
2022-08-03T03:01:42.643Z,22.95
2022-08-03T03:02:43.938Z,22.95
2022-08-03T03:03:44.710Z,23.04
2022-08-03T03:05:52.044Z,23.00
2022-08-03T03:05:53.360Z,23.00
2022-08-03T03:06:42.655Z,22.95
2022-08-03T03:07:51.242Z,23.05
2022-08-03T03:08:42.659Z,22.97
2022-08-03T03:09:43.307Z,23.02
2022-08-03T03:10:42.662Z,23.04
2022-08-03T03:11:42.660Z,22.97
2022-08-03T03:12:42.670Z,23.07
2022-08-03T03:13:42.673Z,23.02
2022-08-03T03:14:42.671Z,22.98
2022-08-03T03:15:42.672Z,23.09
2022-08-03T03:16:42.729Z,23.07
2022-08-03T03:17:42.678Z,23.00
2022-08-03T03:18:42.679Z,23.07
2022-08-03T03:19:42.687Z,23.09
2022-08-03T03:20:42.689Z,23.04
2022-08-03T03:21:42.695Z,23.09
2022-08-03T03:22:45.186Z,23.01
2022-08-03T03:23:42.696Z,23.13
2022-08-03T03:24:42.695Z,23.13
2022-08-03T03:25:42.697Z,23.12
2022-08-03T03:26:42.703Z,23.13
2022-08-03T03:27:42.708Z,23.12
2022-08-03T03:28:42.708Z,23.10
2022-08-03T03:29:42.708Z,23.09
2022-08-03T03:30:42.709Z,23.15
2022-08-03T03:31:42.713Z,23.04
2022-08-03T03:32:42.714Z,23.13
2022-08-03T03:33:42.721Z,23.13
2022-08-03T03:34:42.731Z,23.16
2022-08-03T03:35:42.726Z,23.22
2022-08-03T03:36:42.729Z,23.09
2022-08-03T03:37:42.734Z,23.15
2022-08-03T03:38:42.730Z,23.12
2022-08-03T03:39:42.734Z,23.01
2022-08-03T03:40:42.739Z,23.01
2022-08-03T03:41:42.747Z,23.15
2022-08-03T03:42:42.742Z,23.05
2022-08-03T03:43:42.746Z,23.09
2022-08-03T03:44:42.747Z,23.09
2022-08-03T03:45:42.750Z,23.01
2022-08-03T03:46:42.757Z,22.95
2022-08-03T03:47:42.758Z,22.97
2022-08-03T03:48:42.757Z,22.90
2022-08-03T03:49:42.761Z,22.94
2022-08-03T03:50:42.765Z,22.82
2022-08-03T03:51:42.770Z,22.85
2022-08-03T03:52:42.768Z,22.80
2022-08-03T03:53:42.773Z,22.77
2022-08-03T03:54:42.771Z,22.76
2022-08-03T03:55:57.825Z,22.77
2022-08-03T03:56:42.777Z,22.68
2022-08-03T03:57:42.784Z,22.67
2022-08-03T03:58:42.780Z,22.65
2022-08-03T03:59:42.793Z,22.65
2022-08-03T04:00:42.807Z,22.57
2022-08-03T04:01:42.787Z,22.61
2022-08-03T04:02:42.794Z,22.57
2022-08-03T04:03:42.795Z,22.62
2022-08-03T04:04:42.796Z,22.52
2022-08-03T04:05:45.878Z,22.61
2022-08-03T04:06:42.797Z,22.61
2022-08-03T04:07:42.803Z,22.54
2022-08-03T04:08:42.805Z,22.64
2022-08-03T04:09:42.807Z,22.61
2022-08-03T04:10:42.815Z,22.58
2022-08-03T04:11:42.815Z,22.57
2022-08-03T04:12:50.497Z,22.61
2022-08-03T04:13:42.817Z,22.62
2022-08-03T04:14:42.820Z,22.54
2022-08-03T04:15:42.821Z,22.60
2022-08-03T04:16:43.959Z,22.61
2022-08-03T04:17:42.826Z,22.52
2022-08-03T04:18:42.832Z,22.57
2022-08-03T04:19:42.831Z,22.49
2022-08-03T04:20:42.839Z,22.58
2022-08-03T04:21:42.836Z,22.58
2022-08-03T04:22:42.842Z,22.62
2022-08-03T04:23:42.844Z,22.47
2022-08-03T04:24:42.842Z,22.54
2022-08-03T04:25:42.851Z,22.58
2022-08-03T04:26:42.847Z,22.47
2022-08-03T04:27:42.855Z,22.51
2022-08-03T04:28:42.856Z,22.46
2022-08-03T04:29:44.795Z,22.58
2022-08-03T04:30:42.856Z,22.54
2022-08-03T04:31:42.867Z,22.57
2022-08-03T04:32:45.849Z,22.61
2022-08-03T04:33:42.870Z,22.58
2022-08-03T04:34:42.874Z,22.49
2022-08-03T04:36:01.276Z,22.36
2022-08-03T04:36:42.876Z,22.47
2022-08-03T04:37:42.875Z,22.55
2022-08-03T04:38:42.884Z,22.49
2022-08-03T04:39:42.882Z,22.55
2022-08-03T04:40:42.883Z,22.46
2022-08-03T04:42:08.122Z,22.60
2022-08-03T04:42:42.890Z,22.57
2022-08-03T04:43:42.895Z,22.58
2022-08-03T04:44:42.894Z,22.61
2022-08-03T04:45:42.896Z,22.49
2022-08-03T04:46:46.750Z,22.54
2022-08-03T04:47:43.103Z,22.52
2022-08-03T04:48:44.712Z,22.57
2022-08-03T04:49:42.953Z,22.52
2022-08-03T04:50:42.918Z,22.62
2022-08-03T04:51:42.910Z,22.61
2022-08-03T04:52:42.915Z,22.60
2022-08-03T04:53:42.913Z,22.61
2022-08-03T04:54:42.916Z,22.62
2022-08-03T04:55:42.929Z,22.68
2022-08-03T04:56:42.919Z,22.67
2022-08-03T04:57:42.929Z,22.72
2022-08-03T04:58:42.927Z,22.68
2022-08-03T04:59:42.931Z,22.65
2022-08-03T05:00:42.934Z,22.73
2022-08-03T05:01:43.010Z,22.68
2022-08-03T05:02:42.938Z,22.73
2022-08-03T05:03:42.940Z,22.79
2022-08-03T05:04:42.945Z,22.79
2022-08-03T05:05:49.715Z,22.88
2022-08-03T05:06:48.137Z,22.83
2022-08-03T05:07:42.949Z,22.94
2022-08-03T05:08:46.985Z,22.88
2022-08-03T05:09:52.473Z,22.88
2022-08-03T05:10:42.963Z,22.95
2022-08-03T05:11:42.964Z,22.94
2022-08-03T05:12:42.963Z,22.95
2022-08-03T05:13:42.968Z,23.04
2022-08-03T05:14:42.966Z,23.04
2022-08-03T05:15:43.422Z,23.12
2022-08-03T05:16:42.969Z,23.15
2022-08-03T05:17:43.039Z,23.13
2022-08-03T05:18:42.974Z,23.15
2022-08-03T05:19:42.978Z,23.20
2022-08-03T05:20:42.983Z,23.25
2022-08-03T05:21:51.895Z,23.16
2022-08-03T05:22:42.984Z,23.25
2022-08-03T05:23:42.989Z,23.25
2022-08-03T05:24:42.988Z,23.25
2022-08-03T05:25:49.876Z,23.38
2022-08-03T05:26:42.992Z,23.35
2022-08-03T05:27:42.998Z,23.32
2022-08-03T05:28:50.015Z,23.35
2022-08-03T05:29:43.003Z,23.35
2022-08-03T05:30:43.007Z,23.43
2022-08-03T05:31:43.007Z,23.47
2022-08-03T05:32:43.013Z,23.39
2022-08-03T05:33:43.012Z,23.42
2022-08-03T05:34:43.017Z,23.46
2022-08-03T05:36:01.806Z,23.50
2022-08-03T05:36:43.024Z,23.54
2022-08-03T05:37:54.509Z,23.60
2022-08-03T05:38:43.025Z,23.61
2022-08-03T05:39:43.029Z,23.63
2022-08-03T05:40:56.675Z,23.70
2022-08-03T05:41:43.031Z,23.75
2022-08-03T05:42:43.036Z,23.70
2022-08-03T05:43:43.036Z,23.72
2022-08-03T05:44:43.039Z,23.75
2022-08-03T05:45:43.040Z,23.79
2022-08-03T05:46:43.063Z,23.80
2022-08-03T05:47:43.047Z,23.84
2022-08-03T05:48:43.050Z,23.93
2022-08-03T05:49:43.101Z,23.97
2022-08-03T05:50:43.074Z,24.00
2022-08-03T05:51:43.060Z,23.97
2022-08-03T05:52:43.059Z,24.00
2022-08-03T05:53:43.063Z,24.03
2022-08-03T05:54:56.042Z,24.10
2022-08-03T05:55:43.066Z,24.20
2022-08-03T05:56:43.071Z,24.25
2022-08-03T05:57:43.071Z,24.25
2022-08-03T05:58:43.077Z,24.31
2022-08-03T05:59:54.675Z,24.43
2022-08-03T06:00:43.080Z,24.42
2022-08-03T06:01:43.126Z,24.39
2022-08-03T06:02:43.083Z,24.45
2022-08-03T06:03:43.089Z,24.49
2022-08-03T06:04:43.089Z,24.55
2022-08-03T06:05:43.312Z,24.53
2022-08-03T06:06:43.101Z,24.60
2022-08-03T06:07:43.096Z,24.68
2022-08-03T06:08:43.103Z,24.62
2022-08-03T06:10:36.657Z,24.71
2022-08-03T06:10:43.110Z,24.85
2022-08-03T06:11:43.109Z,24.81
2022-08-03T06:12:43.110Z,24.95
2022-08-03T06:13:43.112Z,24.98
2022-08-03T06:14:43.113Z,25.00
2022-08-03T06:15:43.116Z,25.02
2022-08-03T06:16:43.122Z,25.13
2022-08-03T06:17:43.124Z,25.17
2022-08-03T06:18:43.127Z,25.20
2022-08-03T06:19:43.136Z,25.23
2022-08-03T06:20:43.130Z,25.23
2022-08-03T06:21:43.155Z,25.30
2022-08-03T06:22:50.559Z,25.36
2022-08-03T06:23:53.513Z,25.40
2022-08-03T06:24:48.185Z,25.39
2022-08-03T06:25:43.142Z,25.50
2022-08-03T06:26:43.145Z,25.55
2022-08-03T06:27:43.148Z,25.65
2022-08-03T06:28:51.793Z,25.62
2022-08-03T06:29:43.161Z,25.64
2022-08-03T06:30:43.161Z,25.75
2022-08-03T06:31:43.165Z,25.69
2022-08-03T06:32:43.167Z,25.91
2022-08-03T06:34:22.848Z,25.91
2022-08-03T06:34:43.171Z,25.95
2022-08-03T06:35:43.176Z,26.06
2022-08-03T06:36:43.182Z,26.17
2022-08-03T06:37:43.175Z,26.32
2022-08-03T06:38:43.187Z,26.35
2022-08-03T06:39:43.185Z,26.43
2022-08-03T06:40:43.187Z,26.51
2022-08-03T06:41:44.688Z,26.54
2022-08-03T06:42:43.193Z,26.63
2022-08-03T06:44:03.670Z,26.54
2022-08-03T06:44:43.200Z,26.75
2022-08-03T06:45:43.208Z,26.63
2022-08-03T06:46:43.205Z,26.80
2022-08-03T06:47:43.209Z,26.95
2022-08-03T06:48:43.208Z,26.94
2022-08-03T06:49:43.379Z,27.03
2022-08-03T06:50:43.223Z,26.94
2022-08-03T06:52:03.602Z,27.03
2022-08-03T06:52:43.219Z,27.18
2022-08-03T06:53:43.223Z,27.25
2022-08-03T06:54:43.228Z,27.41
2022-08-03T06:55:43.229Z,27.44
2022-08-03T06:56:43.237Z,27.51
2022-08-03T06:57:43.237Z,27.59
2022-08-03T06:58:43.241Z,27.65
2022-08-03T07:00:09.958Z,27.66
2022-08-03T07:00:43.246Z,27.72
2022-08-03T07:01:43.361Z,27.85
2022-08-03T07:02:43.252Z,27.96
2022-08-03T07:03:52.492Z,28.03
2022-08-03T07:04:43.260Z,28.02
2022-08-03T07:05:43.262Z,28.09
2022-08-03T07:06:43.267Z,28.15
2022-08-03T07:07:43.271Z,28.17
2022-08-03T07:08:43.272Z,28.15
2022-08-03T07:09:43.272Z,28.25
2022-08-03T07:10:43.278Z,28.31
2022-08-03T07:11:43.282Z,28.37
2022-08-03T07:12:52.637Z,28.44
2022-08-03T07:13:43.290Z,28.46
2022-08-03T07:14:43.296Z,28.71
2022-08-03T07:15:55.442Z,28.64
2022-08-03T07:16:43.298Z,28.76
2022-08-03T07:17:43.309Z,28.88
2022-08-03T07:18:43.306Z,28.96
2022-08-03T07:19:43.310Z,28.98
2022-08-03T07:20:43.319Z,29.04
2022-08-03T07:21:43.317Z,29.02
2022-08-03T07:22:43.314Z,29.08
2022-08-03T07:23:43.319Z,29.00
2022-08-03T07:24:43.328Z,29.14
2022-08-03T07:25:43.327Z,29.08
2022-08-03T07:26:43.333Z,29.04
2022-08-03T07:27:43.339Z,29.18
2022-08-03T07:28:43.342Z,29.30
2022-08-03T07:29:43.346Z,29.37
2022-08-03T07:30:43.359Z,29.39
2022-08-03T07:31:43.356Z,29.52
2022-08-03T07:32:50.244Z,29.60
2022-08-03T07:33:43.356Z,29.60
2022-08-03T07:34:43.365Z,29.68
2022-08-03T07:35:43.374Z,29.68
2022-08-03T07:36:43.371Z,29.79
2022-08-03T07:37:46.133Z,29.83
2022-08-03T07:38:43.378Z,29.86
2022-08-03T07:39:43.382Z,29.83
2022-08-03T07:40:46.328Z,29.89
2022-08-03T07:41:43.387Z,29.92
2022-08-03T07:42:43.396Z,29.97
2022-08-03T07:43:43.415Z,30.16
2022-08-03T07:44:43.406Z,30.05
2022-08-03T07:45:43.403Z,30.38
2022-08-03T07:46:43.411Z,30.35
2022-08-03T07:47:43.414Z,30.34
2022-08-03T07:48:43.418Z,30.45
2022-08-03T07:49:43.458Z,30.47
2022-08-03T07:50:43.426Z,30.47
2022-08-03T07:51:43.428Z,30.46
2022-08-03T07:52:43.436Z,30.46
2022-08-03T07:53:47.440Z,30.35
2022-08-03T07:54:43.443Z,30.49
2022-08-03T07:55:43.444Z,30.67
2022-08-03T07:56:43.456Z,30.62
2022-08-03T07:57:43.458Z,30.60
2022-08-03T07:58:43.473Z,30.72
2022-08-03T08:00:01.427Z,30.67
2022-08-03T08:00:43.471Z,30.79
2022-08-03T08:01:43.531Z,30.82
2022-08-03T08:02:43.484Z,30.83
2022-08-03T08:03:53.516Z,30.91
2022-08-03T08:04:43.493Z,30.94
2022-08-03T08:05:43.496Z,31.06
2022-08-03T08:06:43.493Z,30.98
2022-08-03T08:07:43.504Z,31.10
2022-08-03T08:08:43.503Z,31.14
2022-08-03T08:09:43.510Z,31.09
2022-08-03T08:10:57.739Z,31.14
2022-08-03T08:11:43.524Z,31.32
2022-08-03T08:12:43.526Z,31.29
2022-08-03T08:13:43.527Z,31.25
2022-08-03T08:14:43.536Z,31.35
2022-08-03T08:15:43.682Z,31.28
2022-08-03T08:16:43.552Z,31.35
2022-08-03T08:17:43.543Z,31.44
2022-08-03T08:18:43.561Z,31.38
2022-08-03T08:19:47.525Z,31.50
2022-08-03T08:20:43.572Z,31.65
2022-08-03T08:21:53.958Z,31.61
2022-08-03T08:22:43.576Z,31.47
2022-08-03T08:23:48.626Z,31.68
2022-08-03T08:24:43.584Z,31.63
2022-08-03T08:25:43.609Z,31.70
2022-08-03T08:26:43.596Z,31.85
2022-08-03T08:28:31.516Z,31.85
2022-08-03T08:28:43.603Z,32.06
2022-08-03T08:29:47.948Z,32.04
2022-08-03T08:30:43.617Z,32.11
2022-08-03T08:31:43.618Z,31.93
2022-08-03T08:32:43.625Z,32.03
2022-08-03T08:34:12.530Z,32.01
2022-08-03T08:34:43.637Z,32.07
2022-08-03T08:35:43.660Z,32.04
2022-08-03T08:36:43.649Z,32.06
2022-08-03T08:37:43.648Z,32.10
2022-08-03T08:38:43.662Z,32.00
2022-08-03T08:39:43.681Z,32.03
2022-08-03T08:40:43.668Z,32.00
2022-08-03T08:41:45.779Z,32.15
2022-08-03T08:42:57.563Z,32.21
2022-08-03T08:43:43.689Z,32.28
2022-08-03T08:44:43.692Z,32.32
2022-08-03T08:45:43.695Z,32.32
2022-08-03T08:46:43.698Z,32.35
2022-08-03T08:47:51.544Z,32.43
2022-08-03T08:48:43.715Z,32.56
2022-08-03T08:49:58.235Z,32.56
2022-08-03T08:50:43.722Z,32.67
2022-08-03T08:51:59.004Z,32.65
2022-08-03T08:52:43.733Z,32.70
2022-08-03T08:53:43.738Z,32.84
2022-08-03T08:54:43.742Z,32.74
2022-08-03T08:55:59.548Z,32.81
2022-08-03T08:56:43.764Z,32.89
2022-08-03T08:57:43.762Z,32.87
2022-08-03T08:58:43.770Z,33.09
2022-08-03T08:59:48.454Z,33.00
2022-08-03T09:00:43.811Z,33.07
2022-08-03T09:01:43.816Z,33.06
2022-08-03T09:02:43.794Z,33.14
2022-08-03T09:03:43.800Z,33.09
2022-08-03T09:04:43.804Z,33.06
2022-08-03T09:05:55.819Z,33.11
2022-08-03T09:06:58.589Z,33.12
2022-08-03T09:07:43.831Z,33.06
2022-08-03T09:08:43.832Z,33.11
2022-08-03T09:10:08.472Z,33.21
2022-08-03T09:10:43.850Z,33.28
2022-08-03T09:11:54.551Z,33.37
2022-08-03T09:12:43.855Z,33.38
2022-08-03T09:13:43.864Z,33.31
2022-08-03T09:15:00.907Z,33.29
2022-08-03T09:15:53.334Z,33.28
2022-08-03T09:16:43.886Z,33.38
2022-08-03T09:17:46.504Z,33.47
2022-08-03T09:18:43.904Z,33.61
2022-08-03T09:19:43.898Z,33.72
2022-08-03T09:20:43.905Z,33.86
2022-08-03T09:21:43.914Z,33.87
2022-08-03T09:22:43.923Z,33.93
2022-08-03T09:24:00.556Z,33.82
2022-08-03T09:24:43.936Z,33.86
2022-08-03T09:25:43.941Z,33.82
2022-08-03T09:26:43.945Z,33.84
2022-08-03T09:27:43.952Z,33.84
2022-08-03T09:29:01.558Z,33.72
2022-08-03T09:29:43.963Z,33.75
2022-08-03T09:30:43.975Z,33.79
2022-08-03T09:31:44.546Z,33.82
2022-08-03T09:32:43.996Z,33.82
2022-08-03T09:33:43.991Z,33.73
2022-08-03T09:34:43.999Z,33.91
2022-08-03T09:35:53.678Z,33.90
2022-08-03T09:36:44.020Z,33.97
2022-08-03T09:38:12.584Z,34.06
2022-08-03T09:38:44.035Z,34.00
2022-08-03T09:39:44.035Z,34.13
2022-08-03T09:40:44.044Z,34.09
2022-08-03T09:41:44.047Z,34.22
2022-08-03T09:42:44.065Z,34.31
2022-08-03T09:43:44.061Z,34.44
2022-08-03T09:44:44.074Z,34.50
2022-08-03T09:45:44.075Z,34.49
2022-08-03T09:46:44.086Z,34.49
2022-08-03T09:47:44.957Z,34.34
2022-08-03T09:48:44.102Z,34.43
2022-08-03T09:49:44.175Z,34.44
2022-08-03T09:50:58.440Z,34.32
2022-08-03T09:52:32.221Z,34.34
2022-08-03T09:52:50.199Z,34.28
2022-08-03T09:53:58.819Z,34.28
2022-08-03T09:54:44.157Z,34.22
2022-08-03T09:56:33.372Z,34.25
2022-08-03T09:56:44.158Z,34.32
2022-08-03T09:57:44.161Z,34.43
2022-08-03T09:58:44.174Z,34.43
2022-08-03T09:59:44.177Z,34.49
2022-08-03T10:00:44.267Z,34.61
2022-08-03T10:01:44.327Z,34.58
2022-08-03T10:02:44.203Z,34.58
2022-08-03T10:04:04.343Z,34.59
2022-08-03T10:04:44.216Z,34.59
2022-08-03T10:05:44.223Z,34.70
2022-08-03T10:06:44.233Z,34.61
2022-08-03T10:07:46.159Z,34.70
2022-08-03T10:08:44.247Z,34.72
2022-08-03T10:09:44.256Z,34.81
2022-08-03T10:10:44.260Z,34.89
2022-08-03T10:11:44.268Z,34.85
2022-08-03T10:12:44.277Z,34.85
2022-08-03T10:13:44.285Z,34.96
2022-08-03T10:14:44.294Z,34.96
2022-08-03T10:16:22.644Z,35.03
2022-08-03T10:16:44.312Z,35.11
2022-08-03T10:17:44.314Z,35.09
2022-08-03T10:18:44.330Z,35.22
2022-08-03T10:19:44.416Z,35.23
2022-08-03T10:20:44.342Z,35.11
2022-08-03T10:21:44.348Z,35.25
2022-08-03T10:22:44.359Z,35.21
2022-08-03T10:23:44.363Z,35.25
2022-08-03T10:24:44.374Z,35.25
2022-08-03T10:25:44.382Z,35.25
2022-08-03T10:26:49.767Z,35.25
2022-08-03T10:27:44.400Z,35.21
2022-08-03T10:28:45.501Z,35.18
2022-08-03T10:29:44.411Z,35.18
2022-08-03T10:30:44.422Z,35.23
2022-08-03T10:31:57.260Z,35.45
2022-08-03T10:32:44.439Z,35.52
2022-08-03T10:33:51.764Z,35.62
2022-08-03T10:34:44.869Z,35.75
2022-08-03T10:35:44.461Z,35.78
2022-08-03T10:36:44.476Z,35.78
2022-08-03T10:37:56.440Z,35.85
2022-08-03T10:38:44.488Z,35.97
2022-08-03T10:39:44.491Z,35.97
2022-08-03T10:40:54.671Z,35.96
2022-08-03T10:41:44.512Z,36.00
2022-08-03T10:42:44.522Z,37.03
2022-08-03T10:43:44.527Z,38.23
2022-08-03T10:44:44.543Z,39.35
2022-08-03T10:45:44.547Z,40.46
2022-08-03T10:46:45.316Z,41.47
2022-08-03T10:47:44.564Z,42.36
2022-08-03T10:48:44.575Z,42.62
2022-08-03T10:49:44.608Z,43.00
2022-08-03T10:50:44.601Z,43.50
2022-08-03T10:51:44.606Z,43.65
2022-08-03T10:52:49.100Z,43.69
2022-08-03T10:53:54.804Z,43.56
2022-08-03T10:54:44.645Z,43.59
2022-08-03T10:55:44.659Z,44.10
2022-08-03T10:56:49.741Z,44.40
2022-08-03T10:57:45.068Z,44.86
2022-08-03T10:58:57.755Z,45.48
2022-08-03T10:59:44.708Z,45.98
2022-08-03T11:00:44.772Z,46.40
2022-08-03T11:02:00.164Z,46.83
2022-08-03T11:02:44.750Z,46.95
2022-08-03T11:03:44.765Z,47.07
2022-08-03T11:04:44.795Z,47.12
2022-08-03T11:05:44.799Z,47.53
2022-08-03T11:06:44.811Z,47.31
2022-08-03T11:07:44.827Z,47.50
2022-08-03T11:08:44.845Z,47.43
2022-08-03T11:09:44.863Z,47.44
2022-08-03T11:10:44.878Z,47.53
2022-08-03T11:11:44.894Z,47.85
2022-08-03T11:12:44.914Z,47.24
2022-08-03T11:13:44.928Z,46.77
2022-08-03T11:14:44.962Z,46.88
2022-08-03T11:15:44.961Z,47.00
2022-08-03T11:16:49.728Z,47.09
2022-08-03T11:17:45.868Z,47.18
2022-08-03T11:18:45.018Z,47.03
2022-08-03T11:19:56.466Z,47.14
2022-08-03T11:20:45.056Z,47.29
2022-08-03T11:21:45.076Z,47.47
2022-08-03T11:22:45.087Z,47.78
2022-08-03T11:24:05.558Z,48.17
2022-08-03T11:24:45.126Z,48.63
2022-08-03T11:25:55.021Z,49.02
2022-08-03T11:26:45.167Z,49.12
2022-08-03T11:27:45.187Z,49.24
2022-08-03T11:28:45.204Z,49.31
2022-08-03T11:29:45.231Z,49.62
2022-08-03T11:30:45.247Z,49.82
2022-08-03T11:31:50.160Z,50.03
2022-08-03T11:32:46.735Z,50.40
2022-08-03T11:33:45.301Z,50.57
2022-08-03T11:34:45.323Z,50.66
2022-08-03T11:35:45.344Z,50.73
2022-08-03T11:36:45.361Z,50.63
2022-08-03T11:38:03.517Z,50.00
2022-08-03T11:38:45.410Z,49.58
2022-08-03T11:39:45.426Z,49.10
2022-08-03T11:40:45.447Z,48.78
2022-08-03T11:41:45.558Z,48.61
2022-08-03T11:42:45.487Z,48.16
2022-08-03T11:43:45.535Z,47.95
2022-08-03T11:44:47.582Z,47.75
2022-08-03T11:45:45.550Z,47.26
2022-08-03T11:46:45.567Z,46.58
2022-08-03T11:47:51.082Z,46.49
2022-08-03T11:48:45.610Z,46.19
2022-08-03T11:49:45.629Z,46.52
2022-08-03T11:50:45.650Z,47.05
2022-08-03T11:51:45.674Z,46.71
2022-08-03T11:52:45.690Z,46.69
2022-08-03T11:53:45.712Z,46.90
2022-08-03T11:54:45.733Z,46.78
2022-08-03T11:55:45.753Z,46.81
2022-08-03T11:56:45.776Z,46.28
2022-08-03T11:59:00.899Z,46.33
2022-08-03T11:59:11.043Z,46.50
2022-08-03T11:59:45.836Z,46.84
2022-08-03T12:00:45.857Z,47.26
2022-08-03T12:01:45.882Z,47.15
2022-08-03T12:02:45.931Z,46.91
2022-08-03T12:03:46.053Z,46.86
2022-08-03T12:04:45.945Z,46.84
2022-08-03T12:05:51.006Z,47.12
2022-08-03T12:06:47.375Z,47.18
2022-08-03T12:08:03.311Z,47.57
2022-08-03T12:08:46.028Z,47.76
2022-08-03T12:09:46.043Z,47.70
2022-08-03T12:10:46.069Z,47.15
2022-08-03T12:11:52.186Z,46.88
2022-08-03T12:12:46.835Z,46.68
2022-08-03T12:14:45.214Z,46.71
2022-08-03T12:14:51.875Z,46.23
2022-08-03T12:15:46.163Z,45.95
2022-08-03T12:16:46.195Z,46.12
2022-08-03T12:17:46.218Z,45.92
2022-08-03T12:18:46.234Z,45.79
2022-08-03T12:19:46.256Z,45.45
2022-08-03T12:20:46.274Z,45.00
2022-08-03T12:21:56.956Z,45.13
2022-08-03T12:22:46.314Z,44.94
2022-08-03T12:23:46.338Z,44.90
2022-08-03T12:24:47.035Z,44.98
2022-08-03T12:25:46.380Z,45.14
2022-08-03T12:26:58.372Z,45.24
2022-08-03T12:27:46.419Z,45.39
2022-08-03T12:28:49.579Z,45.40
2022-08-03T12:29:58.412Z,45.36
2022-08-03T12:30:46.627Z,45.48
2022-08-03T12:31:46.502Z,45.47
2022-08-03T12:32:46.530Z,45.16
2022-08-03T12:33:46.644Z,44.82
2022-08-03T12:34:47.390Z,44.60
2022-08-03T12:35:52.135Z,44.60
2022-08-03T12:36:46.607Z,44.75
2022-08-03T12:37:46.626Z,44.76
2022-08-03T12:38:46.644Z,44.78
2022-08-03T12:40:01.626Z,44.88
2022-08-03T12:40:46.686Z,44.88
2022-08-03T12:41:46.719Z,44.67
2022-08-03T12:42:46.729Z,44.73
2022-08-03T12:43:46.746Z,44.78
2022-08-03T12:44:46.765Z,44.64
2022-08-03T12:45:46.787Z,44.71
2022-08-03T12:46:48.120Z,44.68
2022-08-03T12:47:46.823Z,44.85
2022-08-03T12:48:46.844Z,44.85
2022-08-03T12:49:46.873Z,44.76
2022-08-03T12:50:46.883Z,44.64
2022-08-03T12:51:46.899Z,44.50
2022-08-03T12:52:46.917Z,44.37